sensor_id;sensor_type;location;lat;lon;timestamp;P1;durP1;ratioP1;P2;durP2;ratioP2
2860;SDS011;1438;50.922;6.704;2023-11-21T00:00:25;38.37;;;20.00;;
2860;SDS011;1438;50.922;6.704;2023-11-21T00:02:51;39.72;;;20.90;;
2860;SDS011;1438;50.922;6.704;2023-11-21T00:05:17;43.30;;;22.30;;
2860;SDS011;1438;50.922;6.704;2023-11-21T00:07:43;39.30;;;22.10;;
2860;SDS011;1438;50.922;6.704;2023-11-21T00:10:10;36.40;;;20.70;;
2860;SDS011;1438;50.922;6.704;2023-11-21T00:12:36;46.33;;;23.67;;
2860;SDS011;1438;50.922;6.704;2023-11-21T00:15:02;39.45;;;22.55;;
2860;SDS011;1438;50.922;6.704;2023-11-21T00:17:30;41.30;;;22.80;;
2860;SDS011;1438;50.922;6.704;2023-11-21T00:19:56;41.67;;;22.40;;
2860;SDS011;1438;50.922;6.704;2023-11-21T00:22:22;38.73;;;22.43;;
2860;SDS011;1438;50.922;6.704;2023-11-21T00:24:48;41.67;;;20.30;;
2860;SDS011;1438;50.922;6.704;2023-11-21T00:27:14;40.40;;;21.67;;
2860;SDS011;1438;50.922;6.704;2023-11-21T00:29:40;45.43;;;22.53;;
2860;SDS011;1438;50.922;6.704;2023-11-21T00:32:06;39.17;;;21.15;;
2860;SDS011;1438;50.922;6.704;2023-11-21T00:34:32;44.13;;;23.38;;
2860;SDS011;1438;50.922;6.704;2023-11-21T00:36:59;42.53;;;22.35;;
2860;SDS011;1438;50.922;6.704;2023-11-21T00:39:25;35.90;;;22.40;;
2860;SDS011;1438;50.922;6.704;2023-11-21T00:41:51;36.83;;;20.50;;
2860;SDS011;1438;50.922;6.704;2023-11-21T00:44:18;37.53;;;22.38;;
2860;SDS011;1438;50.922;6.704;2023-11-21T00:46:44;35.33;;;22.13;;
2860;SDS011;1438;50.922;6.704;2023-11-21T00:49:09;33.70;;;20.77;;
2860;SDS011;1438;50.922;6.704;2023-11-21T00:51:36;37.30;;;21.60;;
2860;SDS011;1438;50.922;6.704;2023-11-21T00:54:02;39.70;;;23.30;;
2860;SDS011;1438;50.922;6.704;2023-11-21T00:56:28;39.53;;;21.60;;
2860;SDS011;1438;50.922;6.704;2023-11-21T00:58:54;35.55;;;22.58;;
2860;SDS011;1438;50.922;6.704;2023-11-21T01:01:20;39.92;;;22.25;;
2860;SDS011;1438;50.922;6.704;2023-11-21T01:03:49;40.53;;;21.77;;
2860;SDS011;1438;50.922;6.704;2023-11-21T01:06:15;38.80;;;23.17;;
2860;SDS011;1438;50.922;6.704;2023-11-21T01:08:42;39.33;;;22.17;;
2860;SDS011;1438;50.922;6.704;2023-11-21T01:11:08;39.72;;;22.60;;
2860;SDS011;1438;50.922;6.704;2023-11-21T01:13:35;43.10;;;21.90;;
2860;SDS011;1438;50.922;6.704;2023-11-21T01:16:02;40.40;;;22.85;;
2860;SDS011;1438;50.922;6.704;2023-11-21T01:18:28;42.88;;;24.08;;
2860;SDS011;1438;50.922;6.704;2023-11-21T01:20:54;40.40;;;23.10;;
2860;SDS011;1438;50.922;6.704;2023-11-21T01:23:21;46.38;;;24.70;;
2860;SDS011;1438;50.922;6.704;2023-11-21T01:25:47;44.33;;;24.63;;
2860;SDS011;1438;50.922;6.704;2023-11-21T01:28:13;47.35;;;26.08;;
2860;SDS011;1438;50.922;6.704;2023-11-21T01:30:39;44.27;;;25.43;;
2860;SDS011;1438;50.922;6.704;2023-11-21T01:33:05;46.13;;;23.90;;
2860;SDS011;1438;50.922;6.704;2023-11-21T01:35:31;39.20;;;24.30;;
2860;SDS011;1438;50.922;6.704;2023-11-21T01:37:57;56.78;;;25.90;;
2860;SDS011;1438;50.922;6.704;2023-11-21T01:40:23;48.22;;;25.33;;
2860;SDS011;1438;50.922;6.704;2023-11-21T01:42:49;56.30;;;28.35;;
2860;SDS011;1438;50.922;6.704;2023-11-21T01:45:15;44.07;;;26.87;;
2860;SDS011;1438;50.922;6.704;2023-11-21T01:47:41;43.55;;;25.58;;
2860;SDS011;1438;50.922;6.704;2023-11-21T01:50:08;45.60;;;26.17;;
2860;SDS011;1438;50.922;6.704;2023-11-21T01:52:37;54.15;;;28.10;;
2860;SDS011;1438;50.922;6.704;2023-11-21T01:55:04;59.35;;;30.55;;
2860;SDS011;1438;50.922;6.704;2023-11-21T01:57:30;53.60;;;27.98;;
2860;SDS011;1438;50.922;6.704;2023-11-21T01:59:56;54.20;;;27.70;;
2860;SDS011;1438;50.922;6.704;2023-11-21T02:02:24;52.97;;;28.52;;
2860;SDS011;1438;50.922;6.704;2023-11-21T02:04:50;48.83;;;27.57;;
2860;SDS011;1438;50.922;6.704;2023-11-21T02:07:16;46.03;;;27.40;;
2860;SDS011;1438;50.922;6.704;2023-11-21T02:09:44;47.63;;;26.27;;
2860;SDS011;1438;50.922;6.704;2023-11-21T02:12:10;47.22;;;27.67;;
2860;SDS011;1438;50.922;6.704;2023-11-21T02:14:36;47.90;;;26.35;;
2860;SDS011;1438;50.922;6.704;2023-11-21T02:17:02;48.30;;;26.57;;
2860;SDS011;1438;50.922;6.704;2023-11-21T02:19:29;50.63;;;25.83;;
2860;SDS011;1438;50.922;6.704;2023-11-21T02:21:58;53.25;;;25.38;;
2860;SDS011;1438;50.922;6.704;2023-11-21T02:24:28;47.47;;;25.83;;
2860;SDS011;1438;50.922;6.704;2023-11-21T02:26:54;42.03;;;24.52;;
2860;SDS011;1438;50.922;6.704;2023-11-21T02:29:21;43.65;;;24.10;;
2860;SDS011;1438;50.922;6.704;2023-11-21T02:31:47;46.88;;;26.52;;
2860;SDS011;1438;50.922;6.704;2023-11-21T02:34:14;51.15;;;26.20;;
2860;SDS011;1438;50.922;6.704;2023-11-21T02:36:40;47.83;;;24.67;;
2860;SDS011;1438;50.922;6.704;2023-11-21T02:39:07;44.85;;;25.15;;
2860;SDS011;1438;50.922;6.704;2023-11-21T02:41:33;52.47;;;25.02;;
2860;SDS011;1438;50.922;6.704;2023-11-21T02:43:59;48.63;;;26.15;;
2860;SDS011;1438;50.922;6.704;2023-11-21T02:46:25;50.33;;;25.20;;
2860;SDS011;1438;50.922;6.704;2023-11-21T02:48:51;47.72;;;26.70;;
2860;SDS011;1438;50.922;6.704;2023-11-21T02:51:21;44.38;;;25.10;;
2860;SDS011;1438;50.922;6.704;2023-11-21T02:53:47;52.05;;;27.55;;
2860;SDS011;1438;50.922;6.704;2023-11-21T02:56:14;45.17;;;25.92;;
2860;SDS011;1438;50.922;6.704;2023-11-21T02:58:44;49.23;;;26.00;;
2860;SDS011;1438;50.922;6.704;2023-11-21T03:01:10;45.63;;;26.05;;
2860;SDS011;1438;50.922;6.704;2023-11-21T03:03:38;49.55;;;25.50;;
2860;SDS011;1438;50.922;6.704;2023-11-21T03:06:05;54.13;;;26.77;;
2860;SDS011;1438;50.922;6.704;2023-11-21T03:08:31;55.13;;;29.42;;
2860;SDS011;1438;50.922;6.704;2023-11-21T03:10:57;44.50;;;27.20;;
2860;SDS011;1438;50.922;6.704;2023-11-21T03:13:23;51.15;;;27.50;;
2860;SDS011;1438;50.922;6.704;2023-11-21T03:15:49;55.03;;;28.92;;
2860;SDS011;1438;50.922;6.704;2023-11-21T03:18:15;66.10;;;28.27;;
2860;SDS011;1438;50.922;6.704;2023-11-21T03:20:43;60.15;;;30.42;;
2860;SDS011;1438;50.922;6.704;2023-11-21T03:23:11;63.50;;;31.92;;
2860;SDS011;1438;50.922;6.704;2023-11-21T03:25:37;63.60;;;27.40;;
2860;SDS011;1438;50.922;6.704;2023-11-21T03:28:03;63.78;;;30.05;;
2860;SDS011;1438;50.922;6.704;2023-11-21T03:30:29;62.53;;;29.02;;
2860;SDS011;1438;50.922;6.704;2023-11-21T03:32:55;61.00;;;28.33;;
2860;SDS011;1438;50.922;6.704;2023-11-21T03:35:21;71.32;;;29.98;;
2860;SDS011;1438;50.922;6.704;2023-11-21T03:37:48;62.58;;;31.27;;
2860;SDS011;1438;50.922;6.704;2023-11-21T03:40:14;58.25;;;29.05;;
2860;SDS011;1438;50.922;6.704;2023-11-21T03:42:40;73.05;;;28.98;;
2860;SDS011;1438;50.922;6.704;2023-11-21T03:45:07;58.35;;;29.20;;
2860;SDS011;1438;50.922;6.704;2023-11-21T03:47:33;64.25;;;28.42;;
2860;SDS011;1438;50.922;6.704;2023-11-21T03:49:59;59.30;;;28.00;;
2860;SDS011;1438;50.922;6.704;2023-11-21T03:52:25;52.40;;;26.47;;
2860;SDS011;1438;50.922;6.704;2023-11-21T03:54:53;55.00;;;29.38;;
2860;SDS011;1438;50.922;6.704;2023-11-21T03:57:20;68.40;;;27.50;;
2860;SDS011;1438;50.922;6.704;2023-11-21T03:59:46;58.08;;;29.20;;
2860;SDS011;1438;50.922;6.704;2023-11-21T04:02:12;61.47;;;30.50;;
2860;SDS011;1438;50.922;6.704;2023-11-21T04:04:38;63.07;;;30.77;;
2860;SDS011;1438;50.922;6.704;2023-11-21T04:07:04;58.33;;;30.80;;
2860;SDS011;1438;50.922;6.704;2023-11-21T04:09:30;55.65;;;26.63;;
2860;SDS011;1438;50.922;6.704;2023-11-21T04:11:56;50.10;;;25.05;;
2860;SDS011;1438;50.922;6.704;2023-11-21T04:14:22;55.17;;;26.10;;
2860;SDS011;1438;50.922;6.704;2023-11-21T04:16:48;52.90;;;27.93;;
2860;SDS011;1438;50.922;6.704;2023-11-21T04:19:14;46.77;;;27.40;;
2860;SDS011;1438;50.922;6.704;2023-11-21T04:21:41;46.43;;;26.50;;
2860;SDS011;1438;50.922;6.704;2023-11-21T04:24:07;55.33;;;29.77;;
2860;SDS011;1438;50.922;6.704;2023-11-21T04:26:33;54.67;;;26.65;;
2860;SDS011;1438;50.922;6.704;2023-11-21T04:28:59;51.72;;;26.38;;
2860;SDS011;1438;50.922;6.704;2023-11-21T04:31:25;45.90;;;25.07;;
2860;SDS011;1438;50.922;6.704;2023-11-21T04:33:51;61.50;;;27.38;;
2860;SDS011;1438;50.922;6.704;2023-11-21T04:36:17;57.25;;;26.67;;
2860;SDS011;1438;50.922;6.704;2023-11-21T04:38:43;54.28;;;25.60;;
2860;SDS011;1438;50.922;6.704;2023-11-21T04:41:09;72.27;;;27.97;;
2860;SDS011;1438;50.922;6.704;2023-11-21T04:43:35;53.28;;;26.88;;
2860;SDS011;1438;50.922;6.704;2023-11-21T04:46:01;54.87;;;28.07;;
2860;SDS011;1438;50.922;6.704;2023-11-21T04:48:27;67.68;;;29.15;;
2860;SDS011;1438;50.922;6.704;2023-11-21T04:50:53;51.80;;;27.43;;
2860;SDS011;1438;50.922;6.704;2023-11-21T04:53:19;58.80;;;27.90;;
2860;SDS011;1438;50.922;6.704;2023-11-21T04:55:45;52.50;;;25.87;;
2860;SDS011;1438;50.922;6.704;2023-11-21T04:58:11;61.35;;;27.23;;
2860;SDS011;1438;50.922;6.704;2023-11-21T05:00:37;48.58;;;25.30;;
2860;SDS011;1438;50.922;6.704;2023-11-21T05:03:04;53.43;;;27.60;;
2860;SDS011;1438;50.922;6.704;2023-11-21T05:05:32;50.20;;;25.10;;
2860;SDS011;1438;50.922;6.704;2023-11-21T05:07:59;50.65;;;26.63;;
2860;SDS011;1438;50.922;6.704;2023-11-21T05:10:25;54.00;;;25.98;;
2860;SDS011;1438;50.922;6.704;2023-11-21T05:12:51;57.22;;;26.20;;
2860;SDS011;1438;50.922;6.704;2023-11-21T05:15:17;46.57;;;25.70;;
2860;SDS011;1438;50.922;6.704;2023-11-21T05:17:43;46.08;;;24.67;;
2860;SDS011;1438;50.922;6.704;2023-11-21T05:20:10;48.25;;;23.23;;
2860;SDS011;1438;50.922;6.704;2023-11-21T05:22:38;52.70;;;26.23;;
2860;SDS011;1438;50.922;6.704;2023-11-21T05:25:04;51.45;;;26.80;;
2860;SDS011;1438;50.922;6.704;2023-11-21T05:27:32;55.88;;;26.50;;
2860;SDS011;1438;50.922;6.704;2023-11-21T05:29:58;50.40;;;26.83;;
2860;SDS011;1438;50.922;6.704;2023-11-21T05:32:24;47.95;;;25.88;;
2860;SDS011;1438;50.922;6.704;2023-11-21T05:34:50;49.08;;;25.83;;
2860;SDS011;1438;50.922;6.704;2023-11-21T05:37:16;63.67;;;29.55;;
2860;SDS011;1438;50.922;6.704;2023-11-21T05:39:43;49.92;;;27.08;;
2860;SDS011;1438;50.922;6.704;2023-11-21T05:42:08;66.53;;;28.67;;
2860;SDS011;1438;50.922;6.704;2023-11-21T05:44:36;56.78;;;29.67;;
2860;SDS011;1438;50.922;6.704;2023-11-21T05:47:02;54.88;;;25.90;;
2860;SDS011;1438;50.922;6.704;2023-11-21T05:49:28;62.30;;;27.92;;
2860;SDS011;1438;50.922;6.704;2023-11-21T05:51:55;51.55;;;27.38;;
2860;SDS011;1438;50.922;6.704;2023-11-21T05:54:21;65.43;;;29.00;;
2860;SDS011;1438;50.922;6.704;2023-11-21T05:56:47;55.08;;;27.45;;
2860;SDS011;1438;50.922;6.704;2023-11-21T05:59:14;68.40;;;30.98;;
2860;SDS011;1438;50.922;6.704;2023-11-21T06:01:40;64.38;;;29.58;;
2860;SDS011;1438;50.922;6.704;2023-11-21T06:04:06;68.27;;;29.70;;
2860;SDS011;1438;50.922;6.704;2023-11-21T06:06:35;61.63;;;30.70;;
2860;SDS011;1438;50.922;6.704;2023-11-21T06:09:01;61.17;;;30.70;;
2860;SDS011;1438;50.922;6.704;2023-11-21T06:11:28;69.70;;;32.10;;
2860;SDS011;1438;50.922;6.704;2023-11-21T06:13:54;69.32;;;30.63;;
2860;SDS011;1438;50.922;6.704;2023-11-21T06:16:20;63.25;;;30.55;;
2860;SDS011;1438;50.922;6.704;2023-11-21T06:18:46;72.95;;;31.70;;
2860;SDS011;1438;50.922;6.704;2023-11-21T06:21:12;80.87;;;33.00;;
2860;SDS011;1438;50.922;6.704;2023-11-21T06:23:38;76.82;;;33.05;;
2860;SDS011;1438;50.922;6.704;2023-11-21T06:26:04;59.65;;;29.73;;
2860;SDS011;1438;50.922;6.704;2023-11-21T06:28:31;71.18;;;32.70;;
2860;SDS011;1438;50.922;6.704;2023-11-21T06:30:57;57.25;;;29.10;;
2860;SDS011;1438;50.922;6.704;2023-11-21T06:33:23;67.40;;;32.93;;
2860;SDS011;1438;50.922;6.704;2023-11-21T06:35:50;55.38;;;29.65;;
2860;SDS011;1438;50.922;6.704;2023-11-21T06:38:16;68.15;;;29.75;;
2860;SDS011;1438;50.922;6.704;2023-11-21T06:40:42;68.38;;;29.38;;
2860;SDS011;1438;50.922;6.704;2023-11-21T06:43:09;60.85;;;30.05;;
2860;SDS011;1438;50.922;6.704;2023-11-21T06:45:35;64.43;;;30.00;;
2860;SDS011;1438;50.922;6.704;2023-11-21T06:48:01;75.30;;;32.00;;
2860;SDS011;1438;50.922;6.704;2023-11-21T06:50:27;73.87;;;32.47;;
2860;SDS011;1438;50.922;6.704;2023-11-21T06:52:53;62.93;;;31.63;;
2860;SDS011;1438;50.922;6.704;2023-11-21T06:55:19;73.10;;;30.50;;
2860;SDS011;1438;50.922;6.704;2023-11-21T06:57:45;62.58;;;29.02;;
2860;SDS011;1438;50.922;6.704;2023-11-21T07:00:13;61.25;;;29.65;;
2860;SDS011;1438;50.922;6.704;2023-11-21T07:02:41;62.70;;;29.00;;
2860;SDS011;1438;50.922;6.704;2023-11-21T07:05:07;55.07;;;27.80;;
2860;SDS011;1438;50.922;6.704;2023-11-21T07:07:33;54.05;;;26.98;;
2860;SDS011;1438;50.922;6.704;2023-11-21T07:10:00;51.92;;;26.52;;
2860;SDS011;1438;50.922;6.704;2023-11-21T07:12:28;53.03;;;27.25;;
2860;SDS011;1438;50.922;6.704;2023-11-21T07:14:54;59.20;;;28.70;;
2860;SDS011;1438;50.922;6.704;2023-11-21T07:17:20;48.13;;;24.40;;
2860;SDS011;1438;50.922;6.704;2023-11-21T07:19:48;60.97;;;27.60;;
2860;SDS011;1438;50.922;6.704;2023-11-21T07:22:15;46.58;;;25.45;;
2860;SDS011;1438;50.922;6.704;2023-11-21T07:24:47;57.20;;;27.27;;
2860;SDS011;1438;50.922;6.704;2023-11-21T07:27:13;58.72;;;26.42;;
2860;SDS011;1438;50.922;6.704;2023-11-21T07:29:39;52.97;;;25.30;;
2860;SDS011;1438;50.922;6.704;2023-11-21T07:32:05;54.33;;;26.23;;
2860;SDS011;1438;50.922;6.704;2023-11-21T07:34:34;51.47;;;24.30;;
2860;SDS011;1438;50.922;6.704;2023-11-21T07:37:00;51.75;;;25.55;;
2860;SDS011;1438;50.922;6.704;2023-11-21T07:39:27;53.80;;;23.60;;
2860;SDS011;1438;50.922;6.704;2023-11-21T07:41:52;59.83;;;26.92;;
2860;SDS011;1438;50.922;6.704;2023-11-21T07:44:19;55.45;;;24.95;;
2860;SDS011;1438;50.922;6.704;2023-11-21T07:46:45;46.38;;;25.15;;
2860;SDS011;1438;50.922;6.704;2023-11-21T07:49:11;49.22;;;25.38;;
2860;SDS011;1438;50.922;6.704;2023-11-21T07:51:41;47.63;;;24.23;;
2860;SDS011;1438;50.922;6.704;2023-11-21T07:54:07;48.97;;;24.08;;
2860;SDS011;1438;50.922;6.704;2023-11-21T07:56:33;52.57;;;25.33;;
2860;SDS011;1438;50.922;6.704;2023-11-21T07:58:59;56.93;;;25.13;;
2860;SDS011;1438;50.922;6.704;2023-11-21T08:01:25;49.97;;;24.83;;
2860;SDS011;1438;50.922;6.704;2023-11-21T08:03:52;47.15;;;25.08;;
2860;SDS011;1438;50.922;6.704;2023-11-21T08:06:21;54.80;;;26.38;;
2860;SDS011;1438;50.922;6.704;2023-11-21T08:08:47;51.13;;;24.77;;
2860;SDS011;1438;50.922;6.704;2023-11-21T08:11:13;51.73;;;23.87;;
2860;SDS011;1438;50.922;6.704;2023-11-21T08:13:39;50.53;;;23.33;;
2860;SDS011;1438;50.922;6.704;2023-11-21T08:16:05;56.17;;;24.50;;
2860;SDS011;1438;50.922;6.704;2023-11-21T08:18:32;56.25;;;25.95;;
2860;SDS011;1438;50.922;6.704;2023-11-21T08:20:59;53.83;;;26.52;;
2860;SDS011;1438;50.922;6.704;2023-11-21T08:23:25;60.47;;;25.80;;
2860;SDS011;1438;50.922;6.704;2023-11-21T08:25:52;56.47;;;25.50;;
2860;SDS011;1438;50.922;6.704;2023-11-21T08:28:18;70.75;;;27.50;;
2860;SDS011;1438;50.922;6.704;2023-11-21T08:30:44;67.13;;;27.90;;
2860;SDS011;1438;50.922;6.704;2023-11-21T08:33:10;68.32;;;28.17;;
2860;SDS011;1438;50.922;6.704;2023-11-21T08:35:37;62.72;;;26.17;;
2860;SDS011;1438;50.922;6.704;2023-11-21T08:38:03;75.50;;;28.65;;
2860;SDS011;1438;50.922;6.704;2023-11-21T08:40:29;68.10;;;28.15;;
2860;SDS011;1438;50.922;6.704;2023-11-21T08:42:55;69.72;;;26.70;;
2860;SDS011;1438;50.922;6.704;2023-11-21T08:45:23;82.45;;;29.50;;
2860;SDS011;1438;50.922;6.704;2023-11-21T08:47:50;100.25;;;33.20;;
2860;SDS011;1438;50.922;6.704;2023-11-21T08:50:17;96.30;;;28.73;;
2860;SDS011;1438;50.922;6.704;2023-11-21T08:52:43;86.65;;;27.85;;
2860;SDS011;1438;50.922;6.704;2023-11-21T08:55:11;87.15;;;27.80;;
2860;SDS011;1438;50.922;6.704;2023-11-21T08:57:40;79.57;;;28.08;;
2860;SDS011;1438;50.922;6.704;2023-11-21T09:00:09;87.05;;;29.67;;
2860;SDS011;1438;50.922;6.704;2023-11-21T09:02:41;102.25;;;34.10;;
2860;SDS011;1438;50.922;6.704;2023-11-21T09:05:07;79.72;;;28.25;;
2860;SDS011;1438;50.922;6.704;2023-11-21T09:07:34;79.70;;;28.40;;
2860;SDS011;1438;50.922;6.704;2023-11-21T09:10:00;92.25;;;30.23;;
2860;SDS011;1438;50.922;6.704;2023-11-21T09:12:26;92.10;;;29.92;;
2860;SDS011;1438;50.922;6.704;2023-11-21T09:14:52;87.65;;;27.23;;
2860;SDS011;1438;50.922;6.704;2023-11-21T09:17:18;79.68;;;28.05;;
2860;SDS011;1438;50.922;6.704;2023-11-21T09:19:44;99.43;;;33.78;;
2860;SDS011;1438;50.922;6.704;2023-11-21T09:22:14;100.47;;;29.52;;
2860;SDS011;1438;50.922;6.704;2023-11-21T09:24:40;100.47;;;28.80;;
2860;SDS011;1438;50.922;6.704;2023-11-21T09:27:07;106.07;;;30.10;;
2860;SDS011;1438;50.922;6.704;2023-11-21T09:29:34;93.22;;;28.80;;
2860;SDS011;1438;50.922;6.704;2023-11-21T09:32:00;94.65;;;29.30;;
2860;SDS011;1438;50.922;6.704;2023-11-21T09:34:26;94.20;;;35.67;;
2860;SDS011;1438;50.922;6.704;2023-11-21T09:36:52;98.72;;;27.63;;
2860;SDS011;1438;50.922;6.704;2023-11-21T09:39:18;79.38;;;26.73;;
2860;SDS011;1438;50.922;6.704;2023-11-21T09:41:51;76.18;;;26.50;;
2860;SDS011;1438;50.922;6.704;2023-11-21T09:44:22;112.85;;;32.10;;
2860;SDS011;1438;50.922;6.704;2023-11-21T09:46:50;89.82;;;28.52;;
2860;SDS011;1438;50.922;6.704;2023-11-21T09:49:20;77.55;;;26.85;;
2860;SDS011;1438;50.922;6.704;2023-11-21T09:51:50;90.22;;;25.88;;
2860;SDS011;1438;50.922;6.704;2023-11-21T09:54:17;96.35;;;27.50;;
2860;SDS011;1438;50.922;6.704;2023-11-21T09:56:46;84.47;;;27.60;;
2860;SDS011;1438;50.922;6.704;2023-11-21T09:59:13;90.90;;;25.70;;
2860;SDS011;1438;50.922;6.704;2023-11-21T10:01:40;87.88;;;26.13;;
2860;SDS011;1438;50.922;6.704;2023-11-21T10:04:07;85.32;;;28.55;;
2860;SDS011;1438;50.922;6.704;2023-11-21T10:06:37;94.00;;;28.38;;
2860;SDS011;1438;50.922;6.704;2023-11-21T10:09:04;83.32;;;28.17;;
2860;SDS011;1438;50.922;6.704;2023-11-21T10:11:36;86.90;;;28.05;;
2860;SDS011;1438;50.922;6.704;2023-11-21T10:14:03;85.82;;;29.17;;
2860;SDS011;1438;50.922;6.704;2023-11-21T10:16:30;83.47;;;29.10;;
2860;SDS011;1438;50.922;6.704;2023-11-21T10:18:57;89.07;;;26.77;;
2860;SDS011;1438;50.922;6.704;2023-11-21T10:21:24;90.15;;;27.35;;
2860;SDS011;1438;50.922;6.704;2023-11-21T10:23:51;66.70;;;26.13;;
2860;SDS011;1438;50.922;6.704;2023-11-21T10:26:18;68.53;;;23.63;;
2860;SDS011;1438;50.922;6.704;2023-11-21T10:28:58;78.13;;;23.50;;
2860;SDS011;1438;50.922;6.704;2023-11-21T10:31:27;77.80;;;23.60;;
2860;SDS011;1438;50.922;6.704;2023-11-21T10:33:53;69.47;;;24.35;;
2860;SDS011;1438;50.922;6.704;2023-11-21T10:36:26;84.25;;;25.77;;
2860;SDS011;1438;50.922;6.704;2023-11-21T10:38:52;64.05;;;22.52;;
2860;SDS011;1438;50.922;6.704;2023-11-21T10:41:18;74.82;;;23.73;;
2860;SDS011;1438;50.922;6.704;2023-11-21T10:43:45;72.65;;;25.52;;
2860;SDS011;1438;50.922;6.704;2023-11-21T10:46:11;65.97;;;22.95;;
2860;SDS011;1438;50.922;6.704;2023-11-21T10:48:37;52.10;;;20.98;;
2860;SDS011;1438;50.922;6.704;2023-11-21T10:51:06;73.57;;;24.63;;
2860;SDS011;1438;50.922;6.704;2023-11-21T10:53:32;74.40;;;22.63;;
2860;SDS011;1438;50.922;6.704;2023-11-21T10:56:05;65.32;;;21.65;;
2860;SDS011;1438;50.922;6.704;2023-11-21T10:58:42;64.13;;;18.92;;
2860;SDS011;1438;50.922;6.704;2023-11-21T11:01:08;58.42;;;22.55;;
2860;SDS011;1438;50.922;6.704;2023-11-21T11:03:39;63.17;;;22.52;;
2860;SDS011;1438;50.922;6.704;2023-11-21T11:06:05;60.83;;;21.55;;
2860;SDS011;1438;50.922;6.704;2023-11-21T11:08:36;49.17;;;21.33;;
2860;SDS011;1438;50.922;6.704;2023-11-21T11:11:03;66.43;;;20.80;;
2860;SDS011;1438;50.922;6.704;2023-11-21T11:13:29;53.20;;;19.02;;
2860;SDS011;1438;50.922;6.704;2023-11-21T11:15:57;53.45;;;20.42;;
2860;SDS011;1438;50.922;6.704;2023-11-21T11:18:30;59.63;;;21.60;;
2860;SDS011;1438;50.922;6.704;2023-11-21T11:21:03;58.38;;;20.50;;
2860;SDS011;1438;50.922;6.704;2023-11-21T11:23:40;59.35;;;20.88;;
2860;SDS011;1438;50.922;6.704;2023-11-21T11:28:58;61.40;;;21.10;;
2860;SDS011;1438;50.922;6.704;2023-11-21T11:33:56;47.75;;;19.48;;
2860;SDS011;1438;50.922;6.704;2023-11-21T11:36:29;51.35;;;18.55;;
2860;SDS011;1438;50.922;6.704;2023-11-21T11:38:57;45.80;;;19.23;;
2860;SDS011;1438;50.922;6.704;2023-11-21T11:41:24;46.67;;;19.60;;
2860;SDS011;1438;50.922;6.704;2023-11-21T11:43:51;46.28;;;18.75;;
2860;SDS011;1438;50.922;6.704;2023-11-21T11:46:18;43.07;;;17.30;;
2860;SDS011;1438;50.922;6.704;2023-11-21T11:48:46;43.72;;;18.98;;
2860;SDS011;1438;50.922;6.704;2023-11-21T11:51:14;38.35;;;17.73;;
2860;SDS011;1438;50.922;6.704;2023-11-21T11:53:42;40.08;;;16.60;;
2860;SDS011;1438;50.922;6.704;2023-11-21T11:58:53;38.03;;;16.73;;
2860;SDS011;1438;50.922;6.704;2023-11-21T12:01:20;33.55;;;14.50;;
2860;SDS011;1438;50.922;6.704;2023-11-21T12:06:33;31.70;;;15.60;;
2860;SDS011;1438;50.922;6.704;2023-11-21T12:09:01;30.90;;;14.85;;
2860;SDS011;1438;50.922;6.704;2023-11-21T12:11:30;41.95;;;17.33;;
2860;SDS011;1438;50.922;6.704;2023-11-21T12:13:57;38.10;;;14.38;;
2860;SDS011;1438;50.922;6.704;2023-11-21T12:16:24;35.95;;;14.85;;
2860;SDS011;1438;50.922;6.704;2023-11-21T12:18:52;30.23;;;16.38;;
2860;SDS011;1438;50.922;6.704;2023-11-21T12:21:19;34.35;;;14.85;;
2860;SDS011;1438;50.922;6.704;2023-11-21T12:23:45;34.30;;;14.85;;
2860;SDS011;1438;50.922;6.704;2023-11-21T12:26:12;29.05;;;15.82;;
2860;SDS011;1438;50.922;6.704;2023-11-21T12:28:38;32.05;;;16.05;;
2860;SDS011;1438;50.922;6.704;2023-11-21T12:31:04;28.90;;;15.32;;
2860;SDS011;1438;50.922;6.704;2023-11-21T12:33:32;31.35;;;14.80;;
2860;SDS011;1438;50.922;6.704;2023-11-21T12:35:58;26.00;;;13.80;;
2860;SDS011;1438;50.922;6.704;2023-11-21T12:38:24;33.53;;;16.33;;
2860;SDS011;1438;50.922;6.704;2023-11-21T12:40:50;30.90;;;14.97;;
2860;SDS011;1438;50.922;6.704;2023-11-21T12:43:16;32.85;;;14.77;;
2860;SDS011;1438;50.922;6.704;2023-11-21T12:45:45;34.10;;;15.60;;
2860;SDS011;1438;50.922;6.704;2023-11-21T12:48:11;27.40;;;14.80;;
2860;SDS011;1438;50.922;6.704;2023-11-21T12:50:37;26.30;;;14.15;;
2860;SDS011;1438;50.922;6.704;2023-11-21T12:53:05;26.02;;;12.77;;
2860;SDS011;1438;50.922;6.704;2023-11-21T12:55:33;28.05;;;14.75;;
2860;SDS011;1438;50.922;6.704;2023-11-21T12:58:03;28.25;;;14.43;;
2860;SDS011;1438;50.922;6.704;2023-11-21T13:00:34;30.85;;;14.95;;
2860;SDS011;1438;50.922;6.704;2023-11-21T13:03:02;31.95;;;15.43;;
2860;SDS011;1438;50.922;6.704;2023-11-21T13:07:58;24.17;;;13.37;;
2860;SDS011;1438;50.922;6.704;2023-11-21T13:10:27;29.85;;;13.75;;
2860;SDS011;1438;50.922;6.704;2023-11-21T13:12:57;26.38;;;14.50;;
2860;SDS011;1438;50.922;6.704;2023-11-21T13:15:26;23.25;;;11.52;;
2860;SDS011;1438;50.922;6.704;2023-11-21T13:17:53;25.25;;;12.63;;
2860;SDS011;1438;50.922;6.704;2023-11-21T13:20:19;23.10;;;12.15;;
2860;SDS011;1438;50.922;6.704;2023-11-21T13:25:27;20.33;;;11.65;;
2860;SDS011;1438;50.922;6.704;2023-11-21T13:27:57;30.35;;;13.20;;
2860;SDS011;1438;50.922;6.704;2023-11-21T13:30:24;31.90;;;15.77;;
2860;SDS011;1438;50.922;6.704;2023-11-21T13:32:58;30.27;;;18.10;;
2860;SDS011;1438;50.922;6.704;2023-11-21T13:35:30;30.23;;;15.18;;
2860;SDS011;1438;50.922;6.704;2023-11-21T13:38:12;25.95;;;15.23;;
2860;SDS011;1438;50.922;6.704;2023-11-21T13:40:38;22.40;;;13.60;;
2860;SDS011;1438;50.922;6.704;2023-11-21T13:43:10;26.02;;;12.52;;
2860;SDS011;1438;50.922;6.704;2023-11-21T13:45:37;40.78;;;19.95;;
2860;SDS011;1438;50.922;6.704;2023-11-21T13:48:06;27.45;;;14.60;;
2860;SDS011;1438;50.922;6.704;2023-11-21T13:50:38;25.55;;;12.98;;
2860;SDS011;1438;50.922;6.704;2023-11-21T13:53:11;24.80;;;16.25;;
2860;SDS011;1438;50.922;6.704;2023-11-21T13:55:48;32.45;;;13.15;;
2860;SDS011;1438;50.922;6.704;2023-11-21T13:58:15;31.58;;;15.93;;
2860;SDS011;1438;50.922;6.704;2023-11-21T14:00:47;27.38;;;15.98;;
2860;SDS011;1438;50.922;6.704;2023-11-21T14:03:20;27.50;;;16.35;;
2860;SDS011;1438;50.922;6.704;2023-11-21T14:05:47;25.35;;;15.80;;
2860;SDS011;1438;50.922;6.704;2023-11-21T14:08:19;26.75;;;14.80;;
2860;SDS011;1438;50.922;6.704;2023-11-21T14:10:49;25.67;;;13.95;;
2860;SDS011;1438;50.922;6.704;2023-11-21T14:13:22;25.45;;;14.20;;
2860;SDS011;1438;50.922;6.704;2023-11-21T14:15:49;28.80;;;13.65;;
2860;SDS011;1438;50.922;6.704;2023-11-21T14:18:27;24.17;;;14.18;;
2860;SDS011;1438;50.922;6.704;2023-11-21T14:20:59;32.67;;;14.98;;
2860;SDS011;1438;50.922;6.704;2023-11-21T14:23:25;26.88;;;14.75;;
2860;SDS011;1438;50.922;6.704;2023-11-21T14:25:51;22.92;;;13.73;;
2860;SDS011;1438;50.922;6.704;2023-11-21T14:28:17;27.17;;;15.68;;
2860;SDS011;1438;50.922;6.704;2023-11-21T14:30:44;24.23;;;15.82;;
2860;SDS011;1438;50.922;6.704;2023-11-21T14:33:11;27.45;;;14.05;;
2860;SDS011;1438;50.922;6.704;2023-11-21T14:35:37;25.15;;;14.27;;
2860;SDS011;1438;50.922;6.704;2023-11-21T14:38:03;23.92;;;14.60;;
2860;SDS011;1438;50.922;6.704;2023-11-21T14:40:33;23.77;;;13.55;;
2860;SDS011;1438;50.922;6.704;2023-11-21T14:43:01;22.42;;;13.60;;
2860;SDS011;1438;50.922;6.704;2023-11-21T14:45:27;24.27;;;14.73;;
2860;SDS011;1438;50.922;6.704;2023-11-21T14:47:54;33.67;;;16.60;;
2860;SDS011;1438;50.922;6.704;2023-11-21T14:50:31;31.83;;;17.08;;
2860;SDS011;1438;50.922;6.704;2023-11-21T14:53:06;27.98;;;14.95;;
2860;SDS011;1438;50.922;6.704;2023-11-21T14:55:33;26.88;;;16.05;;
2860;SDS011;1438;50.922;6.704;2023-11-21T14:58:14;32.38;;;16.45;;
2860;SDS011;1438;50.922;6.704;2023-11-21T15:00:45;32.22;;;19.33;;
2860;SDS011;1438;50.922;6.704;2023-11-21T15:03:11;37.33;;;19.63;;